createdAt,value
2022-11-07T00:01:41.945Z,100803.88
2022-11-07T00:04:08.550Z,100801.91
2022-11-07T00:06:35.071Z,100803.47
2022-11-07T00:09:03.526Z,100795.38
2022-11-07T00:11:30.195Z,100796.25
2022-11-07T00:13:56.696Z,100799.66
2022-11-07T00:16:23.333Z,100787.88
2022-11-07T00:18:49.908Z,100776.28
2022-11-07T00:21:16.413Z,100775.41
2022-11-07T00:23:42.915Z,100779.78
2022-11-07T00:26:13.121Z,100768.03
2022-11-07T00:28:42.133Z,100773.44
2022-11-07T00:31:10.254Z,100768.03
2022-11-07T00:33:36.911Z,100769.75
2022-11-07T00:36:04.554Z,100771.47
2022-11-07T00:38:31.138Z,100770.59
2022-11-07T00:40:59.274Z,100775.13
2022-11-07T00:43:27.606Z,100773.19
2022-11-07T00:45:54.247Z,100781.25
2022-11-07T00:48:21.080Z,100770.31
2022-11-07T00:50:48.106Z,100772.16
2022-11-07T00:53:14.965Z,100774.84
2022-11-07T00:55:41.894Z,100791.00
2022-11-07T00:58:13.416Z,100776.56
2022-11-07T01:00:42.171Z,100771.19
2022-11-07T01:03:08.875Z,100781.97
2022-11-07T01:05:35.719Z,100789.91
2022-11-07T01:08:02.397Z,100781.66
2022-11-07T01:10:29.095Z,100780.84
2022-11-07T01:12:55.757Z,100789.75
2022-11-07T01:15:22.349Z,100787.22
2022-11-07T01:17:50.346Z,100780.00
2022-11-07T01:20:17.178Z,100786.25
2022-11-07T01:22:43.707Z,100781.66
2022-11-07T01:25:10.316Z,100778.16
2022-11-07T01:27:37.003Z,100779.72
2022-11-07T01:30:04.273Z,100774.31
2022-11-07T01:32:30.943Z,100775.19
2022-11-07T01:34:58.807Z,100772.31
2022-11-07T01:37:25.435Z,100767.78
2022-11-07T01:39:52.059Z,100772.94
2022-11-07T01:42:18.566Z,100767.53
2022-11-07T01:45:03.103Z,100774.78
2022-11-07T01:47:33.108Z,100771.34
2022-11-07T01:50:01.516Z,100774.03
2022-11-07T01:52:31.828Z,100777.72
2022-11-07T01:55:02.451Z,100771.34
2022-11-07T01:57:33.248Z,100784.81
2022-11-07T02:00:03.771Z,100790.19
2022-11-07T02:02:32.567Z,100791.91
2022-11-07T02:05:02.330Z,100778.44
2022-11-07T02:07:32.293Z,100779.31
2022-11-07T02:09:59.522Z,100776.47
2022-11-07T02:12:27.712Z,100775.63
2022-11-07T02:14:54.932Z,100773.91
2022-11-07T02:17:21.931Z,100773.06
2022-11-07T02:19:50.490Z,100778.56
2022-11-07T02:22:26.558Z,100769.63
2022-11-07T02:24:58.250Z,100773.47
2022-11-07T02:27:28.794Z,100764.53
2022-11-07T02:29:58.804Z,100772.78
2022-11-07T02:32:25.324Z,100772.16
2022-11-07T02:34:56.502Z,100773.19
2022-11-07T02:37:26.421Z,100768.78
2022-11-07T02:39:54.292Z,100768.03
2022-11-07T02:42:21.358Z,100769.03
2022-11-07T02:44:48.100Z,100774.28
2022-11-07T02:47:15.547Z,100767.91
2022-11-07T02:49:42.077Z,100772.31
2022-11-07T02:52:08.594Z,100772.03
2022-11-07T02:54:35.156Z,100776.28
2022-11-07T02:57:03.251Z,100771.63
2022-11-07T02:59:29.760Z,100775.03
2022-11-07T03:01:56.342Z,100775.75
2022-11-07T03:04:22.924Z,100777.31
2022-11-07T03:06:49.531Z,100781.59
2022-11-07T03:09:16.061Z,100784.84
2022-11-07T03:11:42.576Z,100780.31
2022-11-07T03:14:10.481Z,100784.44
2022-11-07T03:16:37.002Z,100786.84
2022-11-07T03:19:03.565Z,100784.88
2022-11-07T03:21:30.020Z,100794.50
2022-11-07T03:23:56.588Z,100807.88
2022-11-07T03:26:23.098Z,100809.41
2022-11-07T03:28:49.876Z,100812.69
2022-11-07T03:31:17.738Z,100811.69
2022-11-07T03:33:44.421Z,100812.47
2022-11-07T03:36:10.885Z,100811.31
2022-11-07T03:38:37.360Z,100809.34
2022-11-07T03:41:04.137Z,100807.34
2022-11-07T03:43:30.785Z,100809.91
2022-11-07T03:45:57.357Z,100812.47
2022-11-07T03:48:25.378Z,100808.78
2022-11-07T03:50:51.914Z,100804.97
2022-11-07T03:53:24.042Z,100801.28
2022-11-07T03:55:54.164Z,100799.41
2022-11-07T03:58:20.656Z,100801.28
2022-11-07T04:00:47.252Z,100803.97
2022-11-07T04:03:14.482Z,100807.66
2022-11-07T04:05:42.820Z,100808.50
2022-11-07T04:08:09.376Z,100809.38
2022-11-07T04:10:36.083Z,100812.06
2022-11-07T04:13:02.620Z,100811.06
2022-11-07T04:15:29.297Z,100823.53
2022-11-07T04:17:55.974Z,100823.53
2022-11-07T04:20:22.605Z,100821.72
2022-11-07T04:22:50.575Z,100828.94
2022-11-07T04:25:17.276Z,100829.66
2022-11-07T04:27:43.941Z,100843.00
2022-11-07T04:30:13.441Z,100832.06
2022-11-07T04:32:39.961Z,100839.03
2022-11-07T04:35:07.013Z,100846.00
2022-11-07T04:37:33.528Z,100842.31
2022-11-07T04:40:01.500Z,100847.41
2022-11-07T04:42:28.157Z,100845.41
2022-11-07T04:44:54.793Z,100852.53
2022-11-07T04:47:21.339Z,100850.56
2022-11-07T04:49:47.910Z,100858.47
2022-11-07T04:52:14.427Z,100853.94
2022-11-07T04:54:40.948Z,100857.38
2022-11-07T04:57:08.790Z,100857.22
2022-11-07T04:59:35.319Z,100860.75
2022-11-07T05:02:02.031Z,100857.94
2022-11-07T05:04:28.876Z,100865.91
2022-11-07T05:06:55.675Z,100864.88
2022-11-07T05:09:22.424Z,100858.50
2022-11-07T05:11:49.039Z,100863.78
2022-11-07T05:14:16.909Z,100861.75
2022-11-07T05:16:44.001Z,100855.38
2022-11-07T05:19:15.248Z,100853.53
2022-11-07T05:21:41.830Z,100863.34
2022-11-07T05:24:08.494Z,100859.63
2022-11-07T05:26:35.456Z,100861.34
2022-11-07T05:29:02.120Z,100858.53
2022-11-07T05:31:29.975Z,100867.47
2022-11-07T05:33:56.504Z,100878.09
2022-11-07T05:36:24.498Z,100878.94
2022-11-07T05:38:52.903Z,100872.56
2022-11-07T05:41:21.007Z,100866.19
2022-11-07T05:43:47.840Z,100866.88
2022-11-07T05:46:14.513Z,100871.28
2022-11-07T05:48:42.441Z,100873.88
2022-11-07T05:51:09.037Z,100889.06
2022-11-07T05:53:35.743Z,100880.97
2022-11-07T05:56:02.310Z,100876.41
2022-11-07T05:58:29.063Z,100878.09
2022-11-07T06:01:00.655Z,100896.88
2022-11-07T06:03:27.201Z,100895.03
2022-11-07T06:05:55.107Z,100894.03
2022-11-07T06:08:21.783Z,100892.03
2022-11-07T06:10:48.317Z,100888.34
2022-11-07T06:13:16.086Z,100889.22
2022-11-07T06:15:44.100Z,100889.22
2022-11-07T06:18:16.982Z,100899.16
2022-11-07T06:20:43.868Z,100895.47
2022-11-07T06:23:12.382Z,100904.38
2022-11-07T06:25:39.305Z,100912.34
2022-11-07T06:28:08.130Z,100906.94
2022-11-07T06:30:35.321Z,100909.66
2022-11-07T06:33:02.737Z,100905.09
2022-11-07T06:35:29.622Z,100910.50
2022-11-07T06:37:56.157Z,100912.22
2022-11-07T06:40:24.103Z,100907.69
2022-11-07T06:42:50.588Z,100913.94
2022-11-07T06:45:17.266Z,100916.47
2022-11-07T06:47:44.110Z,100915.59
2022-11-07T06:50:10.605Z,100912.78
2022-11-07T06:52:37.116Z,100914.50
2022-11-07T06:55:04.044Z,100907.09
2022-11-07T06:57:32.102Z,100909.66
2022-11-07T06:59:58.766Z,100913.91
2022-11-07T07:02:52.364Z,100924.44
2022-11-07T07:05:11.752Z,100924.16
2022-11-07T07:07:38.281Z,100925.69
2022-11-07T07:10:05.894Z,100925.56
2022-11-07T07:12:34.396Z,100918.19
2022-11-07T07:15:00.906Z,100934.09
2022-11-07T07:17:28.105Z,100940.06
2022-11-07T07:19:54.655Z,100938.91
2022-11-07T07:22:21.169Z,100935.78
2022-11-07T07:24:47.702Z,100931.97
2022-11-07T07:27:14.246Z,100933.50
2022-11-07T07:29:42.149Z,100933.25
2022-11-07T07:32:08.731Z,100935.66
2022-11-07T07:34:35.276Z,100933.50
2022-11-07T07:37:01.728Z,100928.84
2022-11-07T07:39:28.251Z,100931.53
2022-11-07T07:41:54.796Z,100926.13
2022-11-07T07:44:21.297Z,100922.41
2022-11-07T07:46:49.387Z,100921.41
2022-11-07T07:49:15.887Z,100927.56
2022-11-07T07:51:42.374Z,100932.78
2022-11-07T07:54:10.902Z,100927.25
2022-11-07T07:56:37.657Z,100934.19
2022-11-07T07:59:04.302Z,100932.91
2022-11-07T08:01:31.010Z,100928.22
2022-11-07T08:04:01.822Z,100928.94
2022-11-07T08:06:29.260Z,100934.91
2022-11-07T08:08:56.280Z,100936.31
2022-11-07T08:11:22.818Z,100938.59
2022-11-07T08:13:49.279Z,100950.81
2022-11-07T08:16:15.958Z,100952.09
2022-11-07T08:18:42.399Z,100941.66
2022-11-07T08:21:11.476Z,100951.91
2022-11-07T08:23:38.126Z,100947.50
2022-11-07T08:26:05.247Z,100937.66
2022-11-07T08:28:33.938Z,100943.88
2022-11-07T08:31:02.376Z,100952.09
2022-11-07T08:33:29.532Z,100949.50
2022-11-07T08:35:56.869Z,100954.31
2022-11-07T08:38:24.816Z,100949.28
2022-11-07T08:40:52.237Z,100946.97
2022-11-07T08:43:19.741Z,100957.34
2022-11-07T08:45:47.873Z,100952.50
2022-11-07T08:48:15.432Z,100956.59
2022-11-07T08:50:42.458Z,100952.63
2022-11-07T08:53:09.234Z,100956.72
2022-11-07T08:55:37.480Z,100957.25
2022-11-07T08:58:06.222Z,100957.81
2022-11-07T09:00:34.137Z,100960.91
2022-11-07T09:03:38.900Z,100960.28
2022-11-07T09:05:48.167Z,100962.38
2022-11-07T09:08:14.745Z,100959.53
2022-11-07T09:10:43.041Z,100951.94
2022-11-07T09:13:09.597Z,100950.16
2022-11-07T09:15:36.093Z,100947.06
2022-11-07T09:18:03.556Z,100953.94
2022-11-07T09:20:30.066Z,100959.44
2022-11-07T09:22:56.997Z,100954.09
2022-11-07T09:25:23.647Z,100955.34
2022-11-07T09:27:51.995Z,100959.97
2022-11-07T09:30:18.892Z,100962.22
2022-11-07T09:32:46.058Z,100961.75
2022-11-07T09:35:13.179Z,100969.94
2022-11-07T09:37:40.312Z,100967.31
2022-11-07T09:40:21.554Z,100965.66
2022-11-07T09:43:01.711Z,100968.41
2022-11-07T09:45:29.877Z,100965.75
2022-11-07T09:48:00.609Z,100961.41
2022-11-07T09:50:31.318Z,100955.31
2022-11-07T09:53:02.605Z,100963.81
2022-11-07T09:55:33.440Z,100963.19
2022-11-07T09:58:03.757Z,100959.13
2022-11-07T10:00:31.655Z,100961.19
2022-11-07T10:02:59.950Z,100951.69
2022-11-07T10:05:36.054Z,100955.81
2022-11-07T10:08:09.807Z,100955.47
2022-11-07T10:10:43.776Z,100958.56
2022-11-07T10:13:43.860Z,100949.91
2022-11-07T10:16:17.748Z,100956.53
2022-11-07T10:18:59.015Z,100952.47
2022-11-07T10:21:38.188Z,100957.41
2022-11-07T10:24:23.069Z,100955.03
2022-11-07T10:26:49.816Z,100959.00
2022-11-07T10:29:19.306Z,100961.22
2022-11-07T10:31:54.970Z,100960.53
2022-11-07T10:34:30.816Z,100967.38
2022-11-07T10:36:57.581Z,100966.69
2022-11-07T10:39:24.195Z,100960.75
2022-11-07T10:41:59.356Z,100959.59
2022-11-07T10:44:29.019Z,100957.69
2022-11-07T10:46:55.998Z,100957.38
2022-11-07T10:49:24.547Z,100953.31
2022-11-07T10:51:52.365Z,100951.78
2022-11-07T10:54:21.831Z,100953.66
2022-11-07T10:56:57.175Z,100959.25
2022-11-07T10:59:31.406Z,100959.59
2022-11-07T11:02:02.076Z,100960.78
2022-11-07T11:04:30.819Z,100960.44
2022-11-07T11:07:00.145Z,100958.75
2022-11-07T11:09:31.729Z,100955.69
2022-11-07T11:11:58.790Z,100958.75
2022-11-07T11:14:26.926Z,100949.72
2022-11-07T11:16:55.857Z,100947.00
2022-11-07T11:19:25.321Z,100951.25
2022-11-07T11:21:54.154Z,100952.59
2022-11-07T11:24:26.792Z,100947.84
2022-11-07T11:26:55.049Z,100945.13
2022-11-07T11:29:36.763Z,100950.56
2022-11-07T11:32:14.814Z,100953.28
2022-11-07T11:34:48.938Z,100950.56
2022-11-07T11:37:19.792Z,100957.38
2022-11-07T11:39:52.148Z,100957.00
2022-11-07T11:42:31.053Z,100952.06
2022-11-07T11:45:03.619Z,100957.19
2022-11-07T11:47:36.151Z,100948.66
2022-11-07T11:50:10.052Z,100943.88
2022-11-07T11:52:36.968Z,100945.59
2022-11-07T11:55:12.629Z,100950.19
2022-11-07T11:57:50.198Z,100941.00
2022-11-07T12:00:19.438Z,100943.03
2022-11-07T12:03:07.884Z,100948.84
2022-11-07T12:06:05.244Z,100944.75
2022-11-07T12:08:48.900Z,100938.59
2022-11-07T12:11:22.016Z,100931.13
2022-11-07T12:13:59.422Z,100932.81
2022-11-07T12:16:34.192Z,100932.81
2022-11-07T12:19:13.978Z,100931.97
2022-11-07T12:21:48.916Z,100935.00
2022-11-07T12:24:36.883Z,100936.00
2022-11-07T12:27:15.004Z,100933.22
2022-11-07T12:30:01.393Z,100932.53
2022-11-07T12:32:38.097Z,100933.88
2022-11-07T12:35:23.146Z,100936.41
2022-11-07T12:38:07.395Z,100939.13
2022-11-07T12:40:43.414Z,100937.63
2022-11-07T12:43:19.086Z,100948.69
2022-11-07T12:45:53.925Z,100942.59
2022-11-07T12:48:56.390Z,100947.53
2022-11-07T12:51:32.671Z,100941.56
2022-11-07T12:54:16.658Z,100940.22
2022-11-07T12:56:45.561Z,100936.84
2022-11-07T12:59:22.523Z,100945.34
2022-11-07T13:01:57.911Z,100944.00
2022-11-07T13:04:34.606Z,100949.16
2022-11-07T13:07:10.282Z,100946.97
2022-11-07T13:09:46.603Z,100951.06
2022-11-07T13:12:23.034Z,100948.84
2022-11-07T13:14:49.931Z,100950.84
2022-11-07T13:17:18.245Z,100944.91
2022-11-07T13:19:58.049Z,100938.97
2022-11-07T13:22:32.455Z,100950.19
2022-11-07T13:25:22.153Z,100948.50
2022-11-07T13:28:02.147Z,100945.44
2022-11-07T13:30:33.668Z,100945.78
2022-11-07T13:33:00.651Z,100949.69
2022-11-07T13:35:31.053Z,100944.41
2022-11-07T13:38:04.494Z,100950.22
2022-11-07T13:40:37.255Z,100943.06
2022-11-07T13:43:11.625Z,100943.06
2022-11-07T13:45:42.765Z,100935.97
2022-11-07T13:48:16.432Z,100940.53
2022-11-07T13:50:52.022Z,100937.97
2022-11-07T13:53:23.934Z,100947.16
2022-11-07T13:55:55.834Z,100941.72
2022-11-07T13:58:22.920Z,100942.72
2022-11-07T14:00:49.567Z,100936.63
2022-11-07T14:03:24.474Z,100943.09
2022-11-07T14:05:53.963Z,100945.81
2022-11-07T14:08:22.908Z,100943.28
2022-11-07T14:10:51.427Z,100947.16
2022-11-07T14:13:22.927Z,100941.06
2022-11-07T14:15:51.292Z,100938.50
2022-11-07T14:18:18.988Z,100943.09
2022-11-07T14:20:47.074Z,100940.53
2022-11-07T14:23:16.656Z,100932.56
2022-11-07T14:25:43.153Z,100938.16
2022-11-07T14:28:16.109Z,100935.59
2022-11-07T14:30:43.051Z,100930.53
2022-11-07T14:33:18.037Z,100921.69
2022-11-07T14:35:46.294Z,100928.16
2022-11-07T14:38:19.440Z,100929.31
2022-11-07T14:40:46.207Z,100935.13
2022-11-07T14:43:15.606Z,100927.13
2022-11-07T14:48:30.745Z,100918.66
2022-11-07T14:50:59.097Z,100922.38
2022-11-07T14:53:32.280Z,100927.97
2022-11-07T14:56:03.527Z,100924.59
2022-11-07T14:58:30.474Z,100924.75
2022-11-07T15:00:59.629Z,100926.63
2022-11-07T15:03:31.594Z,100916.94
2022-11-07T15:05:58.253Z,100917.09
2022-11-07T15:08:28.526Z,100916.25
2022-11-07T15:11:04.642Z,100927.31
2022-11-07T15:13:32.238Z,100922.03
2022-11-07T15:16:00.974Z,100928.50
2022-11-07T15:18:28.992Z,100929.50
2022-11-07T15:20:57.706Z,100925.25
2022-11-07T15:23:31.240Z,100928.13
2022-11-07T15:25:58.540Z,100928.31
2022-11-07T15:28:26.940Z,100926.44
2022-11-07T15:30:55.233Z,100923.06
2022-11-07T15:33:22.418Z,100928.66
2022-11-07T15:35:56.710Z,100927.97
2022-11-07T15:38:25.204Z,100931.72
2022-11-07T15:40:53.743Z,100941.72
2022-11-07T15:43:20.975Z,100937.31
2022-11-07T15:45:49.266Z,100940.22
2022-11-07T15:48:19.245Z,100944.09
2022-11-07T15:50:47.428Z,100943.44
2022-11-07T15:53:17.936Z,100942.72
2022-11-07T15:55:44.987Z,100944.78
2022-11-07T15:58:15.092Z,100940.19
2022-11-07T16:00:42.015Z,100945.63
2022-11-07T16:03:14.227Z,100943.06
2022-11-07T16:05:41.134Z,100944.09
2022-11-07T16:08:13.151Z,100941.72
2022-11-07T16:10:43.258Z,100936.78
2022-11-07T16:13:09.744Z,100941.00
2022-11-07T16:15:38.873Z,100948.75
2022-11-07T16:18:05.811Z,100947.38
2022-11-07T16:20:32.318Z,100942.44
2022-11-07T16:23:00.986Z,100946.50
2022-11-07T16:25:27.714Z,100944.28
2022-11-07T16:27:57.157Z,100949.38
2022-11-07T16:30:23.972Z,100952.56
2022-11-07T16:32:52.053Z,100948.66
2022-11-07T16:35:18.872Z,100951.88
2022-11-07T16:37:45.416Z,100952.38
2022-11-07T16:40:15.082Z,100953.69
2022-11-07T16:42:41.789Z,100953.34
2022-11-07T16:45:10.363Z,100958.53
2022-11-07T16:47:37.988Z,100962.44
2022-11-07T16:50:07.136Z,100962.06
2022-11-07T16:52:33.712Z,100962.41
2022-11-07T16:55:00.442Z,100964.59
2022-11-07T16:57:26.983Z,100968.47
2022-11-07T16:59:53.487Z,100970.66
2022-11-07T17:02:22.672Z,100974.22
2022-11-07T17:04:50.701Z,100979.66
2022-11-07T17:07:20.210Z,100983.22
2022-11-07T17:09:47.284Z,100978.78
2022-11-07T17:12:16.297Z,100976.94
2022-11-07T17:14:43.026Z,100976.06
2022-11-07T17:17:12.197Z,100978.94
2022-11-07T17:19:39.061Z,100988.13
2022-11-07T17:22:05.922Z,100986.41
2022-11-07T17:24:33.786Z,100985.41
2022-11-07T17:27:00.405Z,100989.78
2022-11-07T17:29:27.071Z,100990.50
2022-11-07T17:31:53.622Z,100994.91
2022-11-07T17:34:20.247Z,100999.16
2022-11-07T17:36:49.090Z,100998.00
2022-11-07T17:39:17.745Z,101005.97
2022-11-07T17:41:47.465Z,101003.97
2022-11-07T17:44:14.856Z,101008.19
2022-11-07T17:46:43.220Z,101014.34
2022-11-07T17:49:12.136Z,101013.16
2022-11-07T17:51:38.947Z,101010.28
2022-11-07T17:54:05.891Z,101018.09
2022-11-07T17:56:33.602Z,101031.53
2022-11-07T17:59:03.332Z,101033.91
2022-11-07T18:01:31.787Z,101039.19
2022-11-07T18:03:59.182Z,101034.44
2022-11-07T18:06:26.531Z,101028.00
2022-11-07T18:08:55.636Z,101034.13
2022-11-07T18:11:25.391Z,101034.81
2022-11-07T18:13:53.520Z,101036.50
2022-11-07T18:16:24.523Z,101031.09
2022-11-07T18:18:51.324Z,101025.50
2022-11-07T18:21:18.339Z,101032.78
2022-11-07T18:23:45.643Z,101028.03
2022-11-07T18:26:14.731Z,101025.31
2022-11-07T18:28:41.233Z,101022.78
2022-11-07T18:31:11.852Z,101026.50
2022-11-07T18:33:40.618Z,101025.97
2022-11-07T18:36:09.763Z,101025.44
2022-11-07T18:38:36.509Z,101019.47
2022-11-07T18:41:05.649Z,101025.22
2022-11-07T18:43:33.093Z,101022.84
2022-11-07T18:46:00.422Z,101020.63
2022-11-07T18:48:29.692Z,101024.47
2022-11-07T18:50:57.997Z,101022.78
2022-11-07T18:53:24.657Z,101025.66
2022-11-07T18:55:56.417Z,101025.66
2022-11-07T18:58:22.934Z,101026.66
2022-11-07T19:00:49.523Z,101024.81
2022-11-07T19:03:16.520Z,101030.25
2022-11-07T19:05:43.406Z,101032.94
2022-11-07T19:08:11.433Z,101025.66
2022-11-07T19:10:38.109Z,101025.47
2022-11-07T19:13:08.122Z,101023.63
2022-11-07T19:15:38.072Z,101025.34
2022-11-07T19:18:04.687Z,101027.91
2022-11-07T19:20:31.180Z,101027.91
2022-11-07T19:22:57.762Z,101027.91
2022-11-07T19:25:25.641Z,101030.44
2022-11-07T19:27:52.180Z,101035.72
2022-11-07T19:30:18.943Z,101033.00
2022-11-07T19:32:45.595Z,101038.44
2022-11-07T19:35:12.307Z,101033.00
2022-11-07T19:37:38.826Z,101031.16
2022-11-07T19:40:06.884Z,101036.41
2022-11-07T19:42:34.821Z,101035.38
2022-11-07T19:45:01.367Z,101031.81
2022-11-07T19:47:29.615Z,101031.66
2022-11-07T19:49:56.323Z,101028.97
2022-11-07T19:52:23.112Z,101036.94
2022-11-07T19:54:50.358Z,101036.09
2022-11-07T19:57:16.945Z,101039.66
2022-11-07T19:59:44.884Z,101039.47
2022-11-07T20:02:31.890Z,101043.91
2022-11-07T20:04:59.624Z,101045.63
2022-11-07T20:07:26.262Z,101042.03
2022-11-07T20:09:52.751Z,101049.19
2022-11-07T20:12:19.289Z,101043.75
2022-11-07T20:14:47.190Z,101043.75
2022-11-07T20:17:13.761Z,101050.03
2022-11-07T20:19:40.413Z,101054.44
2022-11-07T20:22:06.944Z,101049.00
2022-11-07T20:24:33.525Z,101055.13
2022-11-07T20:27:00.100Z,101056.84
2022-11-07T20:29:26.661Z,101058.56
2022-11-07T20:31:54.632Z,101062.94
2022-11-07T20:34:21.180Z,101052.94
2022-11-07T20:36:48.339Z,101061.81
2022-11-07T20:39:15.494Z,101063.66
2022-11-07T20:41:42.132Z,101059.94
2022-11-07T20:44:11.433Z,101059.94
2022-11-07T20:46:40.480Z,101070.81
2022-11-07T20:49:11.383Z,101062.66
2022-11-07T20:51:37.972Z,101062.66
2022-11-07T20:54:04.697Z,101070.63
2022-11-07T20:56:31.916Z,101068.75
2022-11-07T20:58:58.620Z,101066.03
2022-11-07T21:01:27.797Z,101064.03
2022-11-07T21:03:54.551Z,101065.91
2022-11-07T21:06:22.532Z,101067.59
2022-11-07T21:08:49.543Z,101067.59
2022-11-07T21:11:16.774Z,101074.72
2022-11-07T21:13:48.015Z,101072.00
2022-11-07T21:16:19.854Z,101074.72
2022-11-07T21:18:46.984Z,101064.72
2022-11-07T21:21:15.075Z,101070.13
2022-11-07T21:23:43.384Z,101066.41
2022-11-07T21:26:12.842Z,101060.28
2022-11-07T21:28:39.446Z,101054.03
2022-11-07T21:31:08.655Z,101064.03
2022-11-07T21:33:35.674Z,101069.47
2022-11-07T21:36:02.199Z,101073.03
2022-11-07T21:38:28.821Z,101068.59
2022-11-07T21:40:56.876Z,101072.47
2022-11-07T21:43:23.392Z,101073.50
2022-11-07T21:45:49.911Z,101071.94
2022-11-07T21:48:16.488Z,101063.28
2022-11-07T21:50:45.218Z,101077.19
2022-11-07T21:53:12.127Z,101072.06
2022-11-07T21:55:38.729Z,101072.38
2022-11-07T21:58:06.594Z,101076.28
2022-11-07T22:00:36.174Z,101076.41
2022-11-07T22:03:03.760Z,101082.00
2022-11-07T22:05:30.233Z,101074.19
2022-11-07T22:07:56.822Z,101065.50
2022-11-07T22:10:23.368Z,101075.66
2022-11-07T22:12:50.032Z,101072.28
2022-11-07T22:15:17.924Z,101073.28
2022-11-07T22:17:44.672Z,101070.88
2022-11-07T22:20:12.315Z,101062.03
2022-11-07T22:22:38.825Z,101069.50
2022-11-07T22:25:06.278Z,101075.94
2022-11-07T22:27:32.797Z,101075.22
2022-11-07T22:29:59.514Z,101070.97
2022-11-07T22:32:27.435Z,101070.25
2022-11-07T22:34:54.055Z,101068.72
2022-11-07T22:37:20.554Z,101076.16
2022-11-07T22:39:47.068Z,101071.91
2022-11-07T22:42:13.658Z,101071.38
2022-11-07T22:44:40.145Z,101071.69
2022-11-07T22:47:06.854Z,101084.53
2022-11-07T22:49:35.368Z,101073.00
2022-11-07T22:52:01.834Z,101066.03
2022-11-07T22:54:28.324Z,101073.50
2022-11-07T22:56:55.026Z,101073.63
2022-11-07T22:59:21.584Z,101078.34
2022-11-07T23:01:48.198Z,101084.78
2022-11-07T23:04:16.221Z,101079.53
2022-11-07T23:06:44.680Z,101082.38
2022-11-07T23:09:13.122Z,101073.56
2022-11-07T23:11:48.633Z,101076.41
2022-11-07T23:14:18.084Z,101079.28
2022-11-07T23:16:46.599Z,101076.72
2022-11-07T23:19:14.899Z,101079.44
2022-11-07T23:21:41.681Z,101075.88
2022-11-07T23:24:09.852Z,101068.06
2022-11-07T23:26:36.422Z,101064.63
2022-11-07T23:29:10.112Z,101060.22
2022-11-07T23:31:38.212Z,101062.25
2022-11-07T23:34:04.712Z,101059.69
2022-11-07T23:36:31.260Z,101054.25
2022-11-07T23:39:02.327Z,101060.53
2022-11-07T23:41:30.365Z,101060.53
2022-11-07T23:43:56.882Z,101064.22
2022-11-07T23:46:23.456Z,101057.09
2022-11-07T23:48:50.480Z,101058.97
2022-11-07T23:51:16.987Z,101056.25
2022-11-07T23:53:43.602Z,101053.69
2022-11-07T23:56:10.096Z,101051.97
2022-11-07T23:58:38.134Z,101059.44
